Time;durP1;ratioP1;P1;durP2;ratioP2;P2;SDS_P1;SDS_P2;PMS_P1;PMS_P2;Temp;Humidity;BMP_temperature;BMP_pressure;BME280_temperature;BME280_humidity;BME280_pressure;Samples;Min_cycle;Max_cycle;Signal;HPM_P1;HPM_P2
2023/01/05 18:52:43;;;;;;;114.18;65.57;;;10.40;99.90;;;;;;6339219;22;20046;-91
2023/01/05 18:55:10;;;;;;;109.75;67.03;;;10.40;99.90;;;;;;6225233;22;20026;-92
2023/01/05 18:57:36;;;;;;;115.75;68.65;;;10.40;99.90;;;;;;6252908;22;20008;-92
2023/01/05 19:00:04;;;;;;;135.20;71.15;;;10.40;99.90;;;;;;6278737;22;20325;-90
2023/01/05 19:02:30;;;;;;;114.85;65.47;;;10.30;99.90;;;;;;6278046;22;20110;-92
2023/01/05 19:04:56;;;;;;;104.43;60.00;;;10.30;99.90;;;;;;6278296;22;20086;-92
2023/01/05 19:07:23;;;;;;;96.57;57.53;;;10.30;99.90;;;;;;6278042;22;20081;-92
2023/01/05 19:09:50;;;;;;;99.72;57.25;;;10.30;99.90;;;;;;6278187;22;19996;-90
2023/01/05 19:12:16;;;;;;;106.05;56.33;;;10.20;99.90;;;;;;6278272;22;20410;-91
2023/01/05 19:14:43;;;;;;;92.70;55.65;;;10.20;99.90;;;;;;6252413;22;20007;-92
2023/01/05 19:17:09;;;;;;;115.68;61.35;;;10.10;99.90;;;;;;6277850;22;20037;-92
2023/01/05 19:19:36;;;;;;;118.00;65.07;;;10.10;99.90;;;;;;6278598;22;20003;-93
2023/01/05 19:22:03;;;;;;;99.03;55.75;;;10.10;99.90;;;;;;6229304;22;20007;-92
2023/01/05 19:24:30;;;;;;;103.07;58.38;;;10.10;99.90;;;;;;6277601;22;20012;-91
2023/01/05 19:26:57;;;;;;;108.95;62.53;;;10.20;99.90;;;;;;6278009;22;20015;-90
2023/01/05 19:29:23;;;;;;;106.68;61.22;;;10.20;99.90;;;;;;6277744;22;20004;-93
2023/01/05 19:31:50;;;;;;;92.93;55.05;;;10.20;99.90;;;;;;6277712;22;20011;-91
2023/01/05 19:34:18;;;;;;;106.65;61.63;;;10.20;99.90;;;;;;6277705;22;20051;-92
2023/01/05 19:36:45;;;;;;;131.20;77.35;;;10.10;99.90;;;;;;6277459;22;20041;-91
2023/01/05 19:39:17;;;;;;;117.40;66.00;;;10.10;99.90;;;;;;6277618;22;20008;-91
2023/01/05 19:41:45;;;;;;;188.45;89.43;;;10.00;99.90;;;;;;6277852;22;20429;-91
2023/01/05 19:44:46;;;;;;;150.30;79.07;;;9.90;99.90;;;;;;6277918;22;20004;-90
2023/01/05 19:47:12;;;;;;;133.02;71.22;;;9.90;99.90;;;;;;6239135;22;20082;-90
2023/01/05 19:49:38;;;;;;;118.10;65.72;;;9.80;99.90;;;;;;6220952;23;20055;-89
2023/01/05 19:52:05;;;;;;;122.95;70.03;;;9.80;99.90;;;;;;6226809;22;20007;-91
2023/01/05 19:54:31;;;;;;;133.75;71.60;;;9.80;99.90;;;;;;6226767;22;20079;-90
2023/01/05 19:56:58;;;;;;;133.20;69.28;;;9.80;99.90;;;;;;6252129;22;20078;-89
2023/01/05 19:59:35;;;;;;;113.45;62.17;;;9.80;99.90;;;;;;6257543;22;20011;-88
2023/01/05 20:02:03;;;;;;;116.93;61.03;;;9.80;99.90;;;;;;6255263;22;20008;-88
2023/01/05 20:04:30;;;;;;;108.88;59.90;;;9.80;99.90;;;;;;6257365;22;20468;-89
2023/01/05 20:06:57;;;;;;;114.72;63.25;;;9.80;99.90;;;;;;6257014;22;20007;-87
2023/01/05 20:09:24;;;;;;;111.55;64.95;;;9.70;99.90;;;;;;6252144;22;20007;-88
2023/01/05 20:11:52;;;;;;;108.28;62.15;;;9.70;99.90;;;;;;6274124;22;20008;-88
2023/01/05 20:14:22;;;;;;;113.60;64.13;;;9.70;99.90;;;;;;6251812;22;20000;-88
2023/01/05 20:17:10;;;;;;;118.80;65.15;;;9.70;99.90;;;;;;6247055;22;20094;-88
2023/01/05 20:19:38;;;;;;;125.55;65.45;;;9.80;99.90;;;;;;6257481;22;20011;-88
2023/01/05 20:22:06;;;;;;;120.40;64.07;;;9.80;99.90;;;;;;6255754;22;20014;-89
2023/01/05 20:24:36;;;;;;;99.78;58.08;;;9.80;99.90;;;;;;6282664;22;20018;-89
2023/01/05 20:27:08;;;;;;;116.05;60.80;;;9.80;99.90;;;;;;6255024;22;20012;-88
2023/01/05 20:29:36;;;;;;;124.07;64.53;;;9.70;99.90;;;;;;6251947;22;20007;-87
2023/01/05 20:32:18;;;;;;;119.25;62.92;;;9.70;99.90;;;;;;6253215;22;20095;-89
2023/01/05 20:34:50;;;;;;;117.35;63.95;;;9.70;99.90;;;;;;6257066;22;20014;-89
2023/01/05 20:37:17;;;;;;;105.47;57.53;;;9.70;99.90;;;;;;6282497;22;20006;-89
2023/01/05 20:39:43;;;;;;;136.68;70.30;;;9.70;99.90;;;;;;6252188;22;20011;-87
2023/01/05 20:42:11;;;;;;;133.75;64.50;;;9.70;99.90;;;;;;6257875;22;20014;-88
2023/01/05 20:44:40;;;;;;;109.55;55.70;;;9.60;99.90;;;;;;6252284;22;20039;-88
2023/01/05 20:47:08;;;;;;;108.28;57.10;;;9.60;99.90;;;;;;6246258;22;20039;-89
2023/01/05 20:49:36;;;;;;;103.45;56.05;;;9.60;99.90;;;;;;6226189;22;20041;-89
2023/01/05 20:52:06;;;;;;;104.60;58.65;;;9.60;99.90;;;;;;6226524;22;20068;-89
2023/01/05 20:54:32;;;;;;;104.95;57.95;;;9.60;99.90;;;;;;6226067;22;20047;-88
2023/01/05 20:56:59;;;;;;;100.95;53.03;;;9.50;99.90;;;;;;6226085;22;20003;-89
2023/01/05 20:59:31;;;;;;;99.00;54.70;;;9.40;99.90;;;;;;6225932;22;20014;-87
2023/01/05 21:01:59;;;;;;;99.35;54.90;;;9.30;99.90;;;;;;6226487;22;20448;-89
2023/01/05 21:04:26;;;;;;;109.75;57.97;;;9.20;99.90;;;;;;6226140;22;20011;-89
2023/01/05 21:06:53;;;;;;;106.00;60.05;;;9.20;99.90;;;;;;6225871;22;20008;-89
2023/01/05 21:09:21;;;;;;;108.47;57.03;;;9.20;99.90;;;;;;6226270;22;20004;-88
2023/01/05 21:11:48;;;;;;;108.57;56.78;;;9.10;99.90;;;;;;6226219;22;20107;-89
2023/01/05 21:14:16;;;;;;;105.20;56.95;;;9.10;99.90;;;;;;6225959;22;20003;-88
2023/01/05 21:16:49;;;;;;;116.20;61.60;;;9.20;99.90;;;;;;6226195;22;20019;-87
2023/01/05 21:19:18;;;;;;;121.53;62.70;;;9.20;99.90;;;;;;6226011;22;20090;-91
2023/01/05 21:21:46;;;;;;;104.82;55.55;;;9.20;99.90;;;;;;6225784;22;20011;-90
2023/01/05 21:24:14;;;;;;;109.57;57.28;;;9.10;99.90;;;;;;6226184;22;20007;-89
2023/01/05 21:26:41;;;;;;;97.32;54.20;;;9.00;99.90;;;;;;6226571;22;20333;-91
2023/01/05 21:29:31;;;;;;;;;;;;;;;;;;;;;
2023/01/05 21:32:35;;;;;;;98.60;52.03;;;8.90;99.90;;;;;;6263618;22;20008;-92
2023/01/05 21:35:15;;;;;;;101.45;53.38;;;8.90;99.90;;;;;;6187650;22;20418;-91
2023/01/05 21:37:42;;;;;;;93.45;50.33;;;8.80;99.90;;;;;;6255530;22;20075;-92
2023/01/05 21:40:09;;;;;;;88.07;50.30;;;8.80;99.90;;;;;;6231001;22;20012;-91
2023/01/05 21:42:38;;;;;;;101.40;54.90;;;8.80;99.90;;;;;;6226562;22;20004;-92
2023/01/05 21:45:06;;;;;;;99.32;54.42;;;8.80;99.90;;;;;;6226695;22;20043;-93
2023/01/05 21:47:35;;;;;;;102.25;53.10;;;8.70;99.90;;;;;;6225998;22;20025;-90
2023/01/05 21:50:06;;;;;;;97.13;52.80;;;8.80;99.90;;;;;;6226620;22;20076;-91
2023/01/05 21:58:04;;;;;;;95.20;52.17;;;8.70;99.90;;;;;;6251250;22;20007;-90
2023/01/05 22:00:31;;;;;;;87.00;47.35;;;8.60;99.90;;;;;;6225759;22;20113;-91
2023/01/05 22:02:58;;;;;;;84.63;48.08;;;8.60;99.90;;;;;;6225748;22;20346;-89
2023/01/05 22:05:24;;;;;;;92.22;47.90;;;8.50;99.90;;;;;;6225797;22;20012;-90
2023/01/05 22:07:51;;;;;;;80.45;45.10;;;8.40;99.90;;;;;;6225833;22;20086;-90
2023/01/05 22:10:18;;;;;;;96.03;49.83;;;8.40;99.90;;;;;;6225558;22;20038;-90
2023/01/05 22:12:45;;;;;;;77.78;44.30;;;8.40;99.90;;;;;;6225679;22;20083;-91
2023/01/05 22:15:12;;;;;;;80.20;45.03;;;8.40;99.90;;;;;;6225896;22;20000;-90
2023/01/05 22:17:39;;;;;;;84.60;46.42;;;8.30;99.90;;;;;;6225814;22;20007;-90
2023/01/05 22:20:06;;;;;;;74.80;40.13;;;8.30;99.90;;;;;;6225960;22;20003;-90
2023/01/05 22:22:33;;;;;;;67.25;38.90;;;8.20;99.90;;;;;;6225676;22;20012;-91
2023/01/05 22:25:00;;;;;;;70.60;39.90;;;8.20;99.90;;;;;;6225649;22;20090;-90
2023/01/05 22:27:28;;;;;;;70.72;41.28;;;8.10;99.90;;;;;;6226580;22;20558;-90
2023/01/05 22:29:54;;;;;;;78.00;41.55;;;8.00;99.90;;;;;;6225467;22;20012;-90
2023/01/05 22:32:21;;;;;;;75.13;40.92;;;8.00;99.90;;;;;;6225663;22;20090;-90
2023/01/05 22:34:48;;;;;;;79.60;42.70;;;8.00;99.90;;;;;;6220646;23;20016;-90
2023/01/05 22:37:15;;;;;;;111.93;58.70;;;8.00;99.90;;;;;;6250935;22;20433;-91
2023/01/05 22:39:42;;;;;;;98.43;50.45;;;8.10;99.90;;;;;;6225832;22;20008;-92
2023/01/05 22:42:12;;;;;;;98.25;51.72;;;8.10;99.90;;;;;;6225573;22;20008;-91
2023/01/05 22:44:39;;;;;;;90.43;48.40;;;8.10;99.90;;;;;;6225649;22;20011;-90
2023/01/05 22:47:05;;;;;;;89.38;47.83;;;8.10;99.90;;;;;;6251573;22;20073;-92
2023/01/05 22:49:35;;;;;;;84.95;45.10;;;8.10;99.90;;;;;;6226909;22;20007;-93
2023/01/05 22:52:08;;;;;;;88.65;47.22;;;8.10;99.90;;;;;;6254421;22;20008;-90
2023/01/05 22:54:38;;;;;;;84.97;45.28;;;8.00;99.90;;;;;;6229162;22;20096;-88
2023/01/05 22:57:05;;;;;;;88.93;47.08;;;8.00;99.90;;;;;;6254089;22;20008;-90
2023/01/05 22:59:32;;;;;;;80.88;44.70;;;8.00;99.90;;;;;;6231591;22;20004;-93
2023/01/05 23:01:59;;;;;;;96.25;49.42;;;8.00;99.90;;;;;;6232307;22;20042;-92
2023/01/05 23:04:26;;;;;;;106.32;52.15;;;8.00;99.90;;;;;;6257346;22;20007;-93
2023/01/05 23:06:52;;;;;;;98.85;49.60;;;8.00;99.90;;;;;;6232752;22;20079;-92
2023/01/05 23:09:19;;;;;;;101.30;51.22;;;8.00;99.90;;;;;;6256816;22;20004;-93
2023/01/05 23:11:46;;;;;;;96.15;50.55;;;8.00;99.90;;;;;;6232474;22;20012;-92
2023/01/05 23:14:32;;;;;;;95.18;50.88;;;8.00;99.90;;;;;;6232428;22;20004;-94
2023/01/05 23:23:47;;;;;;;80.05;43.30;;;7.80;99.90;;;;;;6256662;22;20032;-92
2023/01/05 23:26:35;;;;;;;76.05;41.75;;;7.80;99.90;;;;;;6251404;23;20068;-92
2023/01/05 23:29:05;;;;;;;96.43;48.22;;;7.80;99.90;;;;;;6225048;23;20028;-91
2023/01/05 23:31:35;;;;;;;73.13;41.00;;;7.70;99.90;;;;;;6226518;23;20005;-91
2023/01/05 23:34:24;;;;;;;77.60;43.70;;;7.70;99.90;;;;;;6272639;22;20003;-93
2023/01/05 23:36:58;;;;;;;83.22;44.13;;;7.70;99.90;;;;;;6267775;22;20004;-93
2023/01/05 23:39:45;;;;;;;83.43;43.75;;;7.70;99.90;;;;;;6259242;22;20449;-92
2023/01/05 23:45:08;;;;;;;93.75;45.25;;;7.70;99.90;;;;;;6279265;22;20062;-93
2023/01/05 23:47:37;;;;;;;84.90;44.95;;;7.70;99.90;;;;;;6253876;22;20425;-92
2023/01/05 23:50:07;;;;;;;81.07;43.55;;;7.70;99.90;;;;;;6247806;22;20069;-93
2023/01/05 23:55:09;;;;;;;70.78;39.78;;;7.80;99.90;;;;;;6318069;22;20478;-93
2023/01/05 23:57:35;;;;;;;69.25;38.20;;;7.70;99.90;;;;;;6260975;22;20101;-93
